createdAt,value
2018-02-19T00:00:46.212Z,76.06
2018-02-19T00:03:14.567Z,76.31
2018-02-19T00:05:43.001Z,75.94
2018-02-19T00:08:11.285Z,75.98
2018-02-19T00:10:40.523Z,76.28
2018-02-19T00:13:08.813Z,76.74
2018-02-19T00:15:37.132Z,76.79
2018-02-19T00:18:05.417Z,76.95
2018-02-19T00:20:33.753Z,77.07
2018-02-19T00:23:05.948Z,77.18
2018-02-19T00:25:34.381Z,77.18
2018-02-19T00:28:05.561Z,76.91
2018-02-19T00:30:35.620Z,77.13
2018-02-19T00:33:06.353Z,77.30
2018-02-19T00:35:36.454Z,77.46
2018-02-19T00:38:08.582Z,77.86
2018-02-19T00:40:37.973Z,78.10
2018-02-19T00:43:08.556Z,78.42
2018-02-19T00:45:37.681Z,78.44
2018-02-19T00:48:08.873Z,78.70
2018-02-19T00:50:39.774Z,78.65
2018-02-19T00:53:09.773Z,78.83
2018-02-19T00:55:38.403Z,79.26
2018-02-19T00:58:06.812Z,79.54
2018-02-19T01:00:36.463Z,79.19
2018-02-19T01:03:06.871Z,79.55
2018-02-19T01:05:39.705Z,79.90
2018-02-19T01:08:08.194Z,79.71
2018-02-19T01:10:37.752Z,79.52
2018-02-19T01:13:07.120Z,79.39
2018-02-19T01:15:35.405Z,79.48
2018-02-19T01:18:04.429Z,79.47
2018-02-19T01:20:34.067Z,79.81
2018-02-19T01:23:08.377Z,79.82
2018-02-19T01:25:38.636Z,79.92
2018-02-19T01:28:07.250Z,79.85
2018-02-19T01:30:39.002Z,80.07
2018-02-19T01:33:07.463Z,79.52
2018-02-19T01:35:37.933Z,79.37
2018-02-19T01:38:06.583Z,80.27
2018-02-19T01:40:36.483Z,79.97
2018-02-19T01:43:07.216Z,79.62
2018-02-19T01:45:39.353Z,80.09
2018-02-19T01:48:09.164Z,80.09
2018-02-19T01:50:39.209Z,80.29
2018-02-19T01:53:07.538Z,79.83
2018-02-19T01:55:42.012Z,80.23
2018-02-19T01:58:11.185Z,79.99
2018-02-19T02:00:42.177Z,79.71
2018-02-19T02:03:10.745Z,79.83
2018-02-19T02:05:40.589Z,80.31
2018-02-19T02:08:10.716Z,80.18
2018-02-19T02:10:40.602Z,80.29
2018-02-19T02:13:09.035Z,80.11
2018-02-19T02:15:37.404Z,80.05
2018-02-19T02:18:07.616Z,79.93
2018-02-19T02:20:37.170Z,80.16
2018-02-19T02:23:06.729Z,80.43
2018-02-19T02:25:36.031Z,80.25
2018-02-19T02:28:04.314Z,80.34
2018-02-19T02:30:32.617Z,80.31
2018-02-19T02:33:05.221Z,80.52
2018-02-19T02:35:33.514Z,80.57
2018-02-19T02:38:05.985Z,80.43
2018-02-19T02:40:34.262Z,80.33
2018-02-19T02:43:04.504Z,80.36
2018-02-19T02:45:32.812Z,80.78
2018-02-19T02:48:04.460Z,80.39
2018-02-19T02:50:33.930Z,80.28
2018-02-19T02:53:05.947Z,80.49
2018-02-19T02:55:34.378Z,80.18
2018-02-19T02:58:06.443Z,80.39
2018-02-19T03:00:36.909Z,80.41
2018-02-19T03:03:05.313Z,80.31
2018-02-19T03:05:35.282Z,80.93
2018-02-19T03:08:04.161Z,80.54
2018-02-19T03:10:33.019Z,80.51
2018-02-19T03:13:06.274Z,80.75
2018-02-19T03:15:36.839Z,80.21
2018-02-19T03:18:06.616Z,80.13
2018-02-19T03:20:36.528Z,79.95
2018-02-19T03:23:06.499Z,79.98
2018-02-19T03:25:36.899Z,80.07
2018-02-19T03:28:07.035Z,80.01
2018-02-19T03:30:37.610Z,79.67
2018-02-19T03:33:07.543Z,79.56
2018-02-19T03:35:38.896Z,79.60
2018-02-19T03:38:09.365Z,79.65
2018-02-19T03:40:39.443Z,80.21
2018-02-19T03:43:09.070Z,80.36
2018-02-19T03:45:39.095Z,80.47
2018-02-19T03:48:08.709Z,80.12
2018-02-19T03:50:39.060Z,79.96
2018-02-19T03:53:09.512Z,79.92
2018-02-19T03:55:39.546Z,79.82
2018-02-19T03:58:09.823Z,80.01
2018-02-19T04:00:40.017Z,80.28
2018-02-19T04:03:09.863Z,80.52
2018-02-19T04:05:40.215Z,80.32
2018-02-19T04:08:08.568Z,80.43
2018-02-19T04:10:37.779Z,80.19
2018-02-19T04:13:06.720Z,79.85
2018-02-19T04:15:35.006Z,80.15
2018-02-19T04:18:05.239Z,79.83
2018-02-19T04:20:33.660Z,79.72
2018-02-19T04:23:04.849Z,80.05
2018-02-19T04:25:33.619Z,79.91
2018-02-19T04:28:05.339Z,80.00
2018-02-19T04:30:33.617Z,79.76
2018-02-19T04:33:05.657Z,80.45
2018-02-19T04:35:34.066Z,80.33
2018-02-19T04:38:05.431Z,80.58
2018-02-19T04:40:33.711Z,80.78
2018-02-19T04:43:15.762Z,81.09
2018-02-19T04:45:49.781Z,80.48
2018-02-19T04:48:18.178Z,80.37
2018-02-19T04:50:46.473Z,80.04
2018-02-19T04:53:15.104Z,80.32
2018-02-19T04:55:43.614Z,80.01
2018-02-19T04:58:11.928Z,79.63
2018-02-19T05:00:40.461Z,80.09
2018-02-19T05:03:08.940Z,80.10
2018-02-19T05:05:37.251Z,80.04
2018-02-19T05:08:05.833Z,80.35
2018-02-19T05:10:34.749Z,80.65
2018-02-19T05:13:04.863Z,80.51
2018-02-19T05:15:33.176Z,80.84
2018-02-19T05:18:04.146Z,80.73
2018-02-19T05:20:32.480Z,81.02
2018-02-19T05:23:05.553Z,81.43
2018-02-19T05:25:33.906Z,81.30
2018-02-19T05:28:05.429Z,81.15
2018-02-19T05:30:33.791Z,81.63
2018-02-19T05:33:05.745Z,81.34
2018-02-19T05:35:34.050Z,81.41
2018-02-19T05:38:05.770Z,81.11
2018-02-19T05:40:34.085Z,80.98
2018-02-19T05:43:06.250Z,80.55
2018-02-19T05:45:34.745Z,80.68
2018-02-19T05:48:04.606Z,81.07
2018-02-19T05:50:32.889Z,81.11
2018-02-19T05:53:05.096Z,80.81
2018-02-19T05:55:33.363Z,81.22
2018-02-19T05:58:04.261Z,80.70
2018-02-19T06:00:32.572Z,80.09
2018-02-19T06:03:06.705Z,80.02
2018-02-19T06:05:34.994Z,79.95
2018-02-19T06:08:04.753Z,80.20
2018-02-19T06:10:33.042Z,79.06
2018-02-19T06:13:04.249Z,78.74
2018-02-19T06:15:32.572Z,78.68
2018-02-19T06:18:04.365Z,78.62
2018-02-19T06:20:32.791Z,78.71
2018-02-19T06:23:04.901Z,78.54
2018-02-19T06:25:33.210Z,78.71
2018-02-19T06:28:05.134Z,78.22
2018-02-19T06:30:34.091Z,78.27
2018-02-19T06:33:05.915Z,78.00
2018-02-19T06:35:38.100Z,77.93
2018-02-19T06:38:06.409Z,77.13
2018-02-19T06:40:34.969Z,77.17
2018-02-19T06:43:04.976Z,77.29
2018-02-19T06:45:33.252Z,77.20
2018-02-19T06:48:04.484Z,77.32
2018-02-19T06:50:32.865Z,78.03
2018-02-19T06:53:04.986Z,78.05
2018-02-19T06:55:33.270Z,78.45
2018-02-19T06:58:04.872Z,78.62
2018-02-19T07:00:33.545Z,78.59
2018-02-19T07:03:05.419Z,78.09
2018-02-19T07:05:33.902Z,77.60
2018-02-19T07:08:04.189Z,77.27
2018-02-19T07:10:32.491Z,77.47
2018-02-19T07:13:03.940Z,77.81
2018-02-19T07:15:32.342Z,77.60
2018-02-19T07:18:03.641Z,77.25
2018-02-19T07:20:32.063Z,77.34
2018-02-19T07:23:05.677Z,77.72
2018-02-19T07:25:33.964Z,77.34
2018-02-19T07:28:05.791Z,77.33
2018-02-19T07:30:34.099Z,78.08
2018-02-19T07:33:05.616Z,78.99
2018-02-19T07:35:34.433Z,77.20
2018-02-19T07:38:04.501Z,76.93
2018-02-19T07:40:32.777Z,77.25
2018-02-19T07:43:04.800Z,77.33
2018-02-19T07:45:33.284Z,76.51
2018-02-19T07:48:05.400Z,76.52
2018-02-19T07:50:33.677Z,76.69
2018-02-19T07:53:05.429Z,75.94
2018-02-19T07:55:33.956Z,76.05
2018-02-19T07:58:06.070Z,75.60
2018-02-19T08:00:34.641Z,75.87
2018-02-19T08:03:04.308Z,76.27
2018-02-19T08:05:32.588Z,76.10
2018-02-19T08:08:07.650Z,75.12
2018-02-19T08:10:35.946Z,73.76
2018-02-19T08:13:04.300Z,73.62
2018-02-19T08:15:32.579Z,74.58
2018-02-19T08:18:04.050Z,74.20
2018-02-19T08:20:32.337Z,73.79
2018-02-19T08:23:03.886Z,72.51
2018-02-19T08:25:32.200Z,73.32
2018-02-19T08:28:07.118Z,73.09
2018-02-19T08:30:35.526Z,71.59
2018-02-19T08:33:04.927Z,72.04
2018-02-19T08:35:33.226Z,70.17
2018-02-19T08:38:05.213Z,70.64
2018-02-19T08:40:33.515Z,70.30
2018-02-19T08:43:04.945Z,70.29
2018-02-19T08:45:33.251Z,69.95
2018-02-19T08:48:04.362Z,69.82
2018-02-19T08:50:32.661Z,68.83
2018-02-19T08:53:04.037Z,68.94
2018-02-19T08:55:32.566Z,68.66
2018-02-19T08:58:04.290Z,68.85
2018-02-19T09:00:33.118Z,66.90
2018-02-19T09:03:04.247Z,68.15
2018-02-19T09:05:32.825Z,68.24
2018-02-19T09:08:07.900Z,68.48
2018-02-19T09:10:36.294Z,69.07
2018-02-19T09:13:04.603Z,68.92
2018-02-19T09:15:33.147Z,68.65
2018-02-19T09:18:04.798Z,68.51
2018-02-19T09:20:33.086Z,67.96
2018-02-19T09:23:05.417Z,67.99
2018-02-19T09:25:33.710Z,67.98
2018-02-19T09:28:05.420Z,67.74
2018-02-19T09:30:33.725Z,66.84
2018-02-19T09:33:05.041Z,64.26
2018-02-19T09:35:33.591Z,64.94
2018-02-19T09:38:05.510Z,66.58
2018-02-19T09:40:33.784Z,66.50
2018-02-19T09:43:05.056Z,66.32
2018-02-19T09:45:33.996Z,66.18
2018-02-19T09:48:05.673Z,66.42
2018-02-19T09:50:33.961Z,66.70
2018-02-19T09:55:32.936Z,66.65
2018-02-19T09:58:04.365Z,66.31
2018-02-19T10:00:32.692Z,65.71
2018-02-19T10:03:07.769Z,64.25
2018-02-19T10:05:36.090Z,65.94
2018-02-19T10:08:04.359Z,65.98
2018-02-19T10:10:33.008Z,64.48
2018-02-19T10:13:04.294Z,64.99
2018-02-19T10:15:32.634Z,63.33
2018-02-19T10:18:08.179Z,62.93
2018-02-19T10:20:36.778Z,63.00
2018-02-19T10:23:05.089Z,63.93
2018-02-19T10:25:34.231Z,64.45
2018-02-19T10:28:05.467Z,63.73
2018-02-19T10:30:33.766Z,62.43
2018-02-19T10:33:05.013Z,63.27
2018-02-19T10:35:33.906Z,62.89
2018-02-19T10:38:03.722Z,63.58
2018-02-19T10:40:32.034Z,63.33
2018-02-19T10:43:04.208Z,62.71
2018-02-19T10:45:36.496Z,61.47
2018-02-19T10:48:04.780Z,59.44
2018-02-19T10:50:33.080Z,58.89
2018-02-19T10:53:04.401Z,57.24
2018-02-19T10:55:32.984Z,54.36
2018-02-19T10:58:05.347Z,55.27
2018-02-19T11:00:39.073Z,56.87
2018-02-19T11:03:07.387Z,54.47
2018-02-19T11:05:36.190Z,51.64
2018-02-19T11:08:04.804Z,48.90
2018-02-19T11:10:33.053Z,54.14
2018-02-19T11:13:05.265Z,54.81
2018-02-19T11:15:33.561Z,54.51
2018-02-19T11:18:03.591Z,57.13
2018-02-19T11:20:32.046Z,54.36
2018-02-19T11:23:03.274Z,51.98
2018-02-19T11:25:31.563Z,50.58
2018-02-19T11:28:07.109Z,52.25
2018-02-19T11:30:35.407Z,53.43
2018-02-19T11:33:03.709Z,55.08
2018-02-19T11:35:32.332Z,49.87
2018-02-19T11:38:04.612Z,48.95
2018-02-19T11:40:33.105Z,50.66
2018-02-19T11:43:04.757Z,51.84
2018-02-19T11:45:33.058Z,48.69
2018-02-19T11:48:04.685Z,47.04
2018-02-19T11:50:32.992Z,44.76
2018-02-19T11:53:04.836Z,46.29
2018-02-19T11:55:33.129Z,44.08
2018-02-19T11:58:05.299Z,42.90
2018-02-19T12:00:33.950Z,47.24
2018-02-19T12:03:03.969Z,49.67
2018-02-19T12:05:33.038Z,47.77
2018-02-19T12:08:04.793Z,52.33
2018-02-19T12:10:33.582Z,54.18
2018-02-19T12:13:04.016Z,53.63
2018-02-19T12:15:32.595Z,51.57
2018-02-19T12:18:04.314Z,51.93
2018-02-19T12:20:33.114Z,50.90
2018-02-19T12:23:04.878Z,50.21
2018-02-19T12:25:33.170Z,48.59
2018-02-19T12:28:05.133Z,52.71
2018-02-19T12:30:33.410Z,47.34
2018-02-19T12:33:03.348Z,51.15
2018-02-19T12:35:31.638Z,51.06
2018-02-19T12:38:06.884Z,51.43
2018-02-19T12:40:35.136Z,47.12
2018-02-19T12:43:03.435Z,43.38
2018-02-19T12:45:31.737Z,41.52
2018-02-19T12:48:06.776Z,46.87
2018-02-19T12:50:35.249Z,46.07
2018-02-19T12:53:03.828Z,44.88
2018-02-19T12:55:32.258Z,47.90
2018-02-19T12:58:04.177Z,47.23
2018-02-19T13:00:32.494Z,43.64
2018-02-19T13:03:04.518Z,43.78
2018-02-19T13:05:32.822Z,42.31
2018-02-19T13:08:04.447Z,46.22
2018-02-19T13:10:32.734Z,48.36
2018-02-19T13:13:03.591Z,48.15
2018-02-19T13:15:31.940Z,47.53
2018-02-19T13:18:05.883Z,43.86
2018-02-19T13:20:34.185Z,43.24
2018-02-19T13:23:03.842Z,42.82
2018-02-19T13:25:32.653Z,40.51
2018-02-19T13:28:04.174Z,41.39
2018-02-19T13:30:32.487Z,41.28
2018-02-19T13:33:04.526Z,43.18
2018-02-19T13:35:32.841Z,45.37
2018-02-19T13:38:04.798Z,47.00
2018-02-19T13:40:33.233Z,47.11
2018-02-19T13:43:03.383Z,42.52
2018-02-19T13:45:31.736Z,40.40
2018-02-19T13:48:06.765Z,45.59
2018-02-19T13:50:35.054Z,47.27
2018-02-19T13:53:03.352Z,47.93
2018-02-19T13:55:32.876Z,45.76
2018-02-19T13:58:05.055Z,45.81
2018-02-19T14:00:33.784Z,47.26
2018-02-19T14:03:03.691Z,47.16
2018-02-19T14:05:31.996Z,46.92
2018-02-19T14:08:04.015Z,50.50
2018-02-19T14:10:32.466Z,52.48
2018-02-19T14:13:04.576Z,51.39
2018-02-19T14:15:33.141Z,53.46
2018-02-19T14:18:05.394Z,52.40
2018-02-19T14:20:33.738Z,52.73
2018-02-19T14:23:04.349Z,54.35
2018-02-19T14:25:32.678Z,54.03
2018-02-19T14:28:04.518Z,53.10
2018-02-19T14:30:32.880Z,53.83
2018-02-19T14:33:04.921Z,53.43
2018-02-19T14:35:33.220Z,52.86
2018-02-19T14:38:04.805Z,53.77
2018-02-19T14:40:33.088Z,53.91
2018-02-19T14:43:05.121Z,54.91
2018-02-19T14:45:33.447Z,55.26
2018-02-19T14:48:03.461Z,54.44
2018-02-19T14:50:31.775Z,55.64
2018-02-19T14:53:06.034Z,56.04
2018-02-19T14:55:34.346Z,55.43
2018-02-19T14:58:03.957Z,56.06
2018-02-19T15:00:32.301Z,54.28
2018-02-19T15:03:03.538Z,53.98
2018-02-19T15:05:31.819Z,54.65
2018-02-19T15:08:06.893Z,54.44
2018-02-19T15:10:35.411Z,54.54
2018-02-19T15:13:07.706Z,56.04
2018-02-19T15:15:36.202Z,54.86
2018-02-19T15:18:04.729Z,55.45
2018-02-19T15:20:33.295Z,55.73
2018-02-19T15:23:03.505Z,56.00
2018-02-19T15:25:31.785Z,56.12
2018-02-19T15:28:07.101Z,55.39
2018-02-19T15:30:35.416Z,55.98
2018-02-19T15:33:04.250Z,57.12
2018-02-19T15:35:32.556Z,55.75
2018-02-19T15:38:04.212Z,55.42
2018-02-19T15:40:32.501Z,56.16
2018-02-19T15:43:04.801Z,55.88
2018-02-19T15:45:33.081Z,56.16
2018-02-19T15:48:05.211Z,56.97
2018-02-19T15:50:33.508Z,56.93
2018-02-19T15:53:04.036Z,56.35
2018-02-19T15:55:32.288Z,56.32
2018-02-19T15:58:03.909Z,56.21
2018-02-19T16:00:32.249Z,56.87
2018-02-19T16:03:03.713Z,56.62
2018-02-19T16:05:32.010Z,56.56
2018-02-19T16:08:04.143Z,57.83
2018-02-19T16:10:32.419Z,56.81
2018-02-19T16:13:04.466Z,56.75
2018-02-19T16:15:32.758Z,56.47
2018-02-19T16:18:04.757Z,56.22
2018-02-19T16:20:33.084Z,56.46
2018-02-19T16:23:05.405Z,56.55
2018-02-19T16:25:33.696Z,56.97
2018-02-19T16:28:04.381Z,56.90
2018-02-19T16:30:32.967Z,55.85
2018-02-19T16:33:05.028Z,56.05
2018-02-19T16:35:33.363Z,56.18
2018-02-19T16:38:03.354Z,56.29
2018-02-19T16:40:31.652Z,57.07
2018-02-19T16:43:03.150Z,57.59
2018-02-19T16:45:31.443Z,57.75
2018-02-19T16:48:06.531Z,57.18
2018-02-19T16:50:34.857Z,58.41
2018-02-19T16:53:03.497Z,57.57
2018-02-19T16:55:31.890Z,58.06
2018-02-19T16:58:04.885Z,57.83
2018-02-19T17:00:33.177Z,57.60
2018-02-19T17:03:04.994Z,57.81
2018-02-19T17:05:33.309Z,57.92
2018-02-19T17:08:04.886Z,58.08
2018-02-19T17:10:33.141Z,57.73
2018-02-19T17:13:05.200Z,59.07
2018-02-19T17:15:33.494Z,59.65
2018-02-19T17:18:05.733Z,59.52
2018-02-19T17:20:34.043Z,59.10
2018-02-19T17:23:03.464Z,58.35
2018-02-19T17:25:31.744Z,58.66
2018-02-19T17:28:03.831Z,58.41
2018-02-19T17:30:32.142Z,58.31
2018-02-19T17:33:04.084Z,58.85
2018-02-19T17:35:32.640Z,58.32
2018-02-19T17:38:04.914Z,59.18
2018-02-19T17:40:33.181Z,59.61
2018-02-19T17:43:04.408Z,60.20
2018-02-19T17:45:33.152Z,59.69
2018-02-19T17:48:05.270Z,59.55
2018-02-19T17:50:33.592Z,59.99
2018-02-19T17:53:04.967Z,59.86
2018-02-19T17:55:33.275Z,59.88
2018-02-19T17:58:05.234Z,59.93
2018-02-19T18:00:33.533Z,60.04
2018-02-19T18:03:03.551Z,60.65
2018-02-19T18:05:31.858Z,59.62
2018-02-19T18:08:03.862Z,60.81
2018-02-19T18:10:32.172Z,60.31
2018-02-19T18:13:03.410Z,60.84
2018-02-19T18:15:31.725Z,61.80
2018-02-19T18:18:03.824Z,60.72
2018-02-19T18:20:32.147Z,60.52
2018-02-19T18:23:03.563Z,60.61
2018-02-19T18:25:31.865Z,61.50
2018-02-19T18:28:06.968Z,60.53
2018-02-19T18:30:35.304Z,60.61
2018-02-19T18:33:04.978Z,60.89
2018-02-19T18:35:33.267Z,61.29
2018-02-19T18:38:03.431Z,61.11
2018-02-19T18:40:31.730Z,61.27
2018-02-19T18:43:04.339Z,61.71
2018-02-19T18:45:32.741Z,61.21
2018-02-19T18:48:04.405Z,61.13
2018-02-19T18:50:33.289Z,61.22
2018-02-19T18:53:05.472Z,61.62
2018-02-19T18:55:33.766Z,61.67
2018-02-19T18:58:03.608Z,61.98
2018-02-19T19:00:31.875Z,62.62
2018-02-19T19:03:06.845Z,62.28
2018-02-19T19:05:35.148Z,62.21
2018-02-19T19:08:15.291Z,62.38
2018-02-19T19:10:51.742Z,62.22
2018-02-19T19:13:20.042Z,62.41
2018-02-19T19:15:48.321Z,62.73
2018-02-19T19:18:16.736Z,61.86
2018-02-19T19:20:45.038Z,62.24
2018-02-19T19:23:13.321Z,62.42
2018-02-19T19:25:41.636Z,62.69
2018-02-19T19:28:10.124Z,63.05
2018-02-19T19:30:38.425Z,63.73
2018-02-19T19:33:06.737Z,64.28
2018-02-19T19:35:35.105Z,64.32
2018-02-19T19:38:03.563Z,64.11
2018-02-19T19:40:31.854Z,64.13
2018-02-19T19:43:07.168Z,64.35
2018-02-19T19:45:35.488Z,65.05
2018-02-19T19:48:04.042Z,64.61
2018-02-19T19:50:32.342Z,64.53
2018-02-19T19:53:04.123Z,64.28
2018-02-19T19:55:32.498Z,64.83
2018-02-19T19:58:04.454Z,64.41
2018-02-19T20:00:32.783Z,64.10
2018-02-19T20:03:03.446Z,64.19
2018-02-19T20:05:31.777Z,64.44
2018-02-19T20:08:06.821Z,64.28
2018-02-19T20:10:35.135Z,64.35
2018-02-19T20:13:03.657Z,64.31
2018-02-19T20:15:32.118Z,63.91
2018-02-19T20:18:03.460Z,64.20
2018-02-19T20:20:32.003Z,63.68
2018-02-19T20:23:06.101Z,64.89
2018-02-19T20:25:34.569Z,64.14
2018-02-19T20:28:03.897Z,64.12
2018-02-19T20:30:32.217Z,63.87
2018-02-19T20:33:03.686Z,64.81
2018-02-19T20:35:31.968Z,64.51
2018-02-19T20:38:04.190Z,63.98
2018-02-19T20:40:32.647Z,64.70
2018-02-19T20:43:04.791Z,64.69
2018-02-19T20:45:33.076Z,65.00
2018-02-19T20:48:04.494Z,65.34
2018-02-19T20:50:32.797Z,64.84
2018-02-19T20:53:03.523Z,65.23
2018-02-19T20:55:31.818Z,65.58
2018-02-19T20:58:07.646Z,65.91
2018-02-19T21:00:35.959Z,65.16
2018-02-19T21:03:04.254Z,65.65
2018-02-19T21:05:32.560Z,65.27
2018-02-19T21:08:05.062Z,65.48
2018-02-19T21:10:33.385Z,65.57
2018-02-19T21:13:05.091Z,65.04
2018-02-19T21:15:33.416Z,65.29
2018-02-19T21:18:03.519Z,65.89
2018-02-19T21:20:31.921Z,66.20
2018-02-19T21:23:03.364Z,66.87
2018-02-19T21:25:31.733Z,65.95
2018-02-19T21:28:05.172Z,66.64
2018-02-19T21:30:33.486Z,65.94
2018-02-19T21:33:03.388Z,66.87
2018-02-19T21:35:31.942Z,67.50
2018-02-19T21:38:03.286Z,66.59
2018-02-19T21:40:32.011Z,66.41
2018-02-19T21:43:03.841Z,66.70
2018-02-19T21:45:33.073Z,67.41
2018-02-19T21:48:04.565Z,68.19
2018-02-19T21:50:32.870Z,68.38
2018-02-19T21:53:05.030Z,68.80
2018-02-19T21:55:33.298Z,68.88
2018-02-19T21:58:04.669Z,69.23
2018-02-19T22:00:32.986Z,69.74
2018-02-19T22:03:05.118Z,70.10
2018-02-19T22:05:33.412Z,70.10
2018-02-19T22:08:04.821Z,70.10
2018-02-19T22:10:33.104Z,70.30
2018-02-19T22:13:04.376Z,70.54
2018-02-19T22:15:32.697Z,71.17
2018-02-19T22:18:03.873Z,70.99
2018-02-19T22:20:32.446Z,70.62
2018-02-19T22:23:03.698Z,71.36
2018-02-19T22:25:32.144Z,71.86
2018-02-19T22:28:03.667Z,71.55
2018-02-19T22:30:32.389Z,71.69
2018-02-19T22:33:04.084Z,71.70
2018-02-19T22:35:32.445Z,71.60
2018-02-19T22:38:04.570Z,70.88
2018-02-19T22:40:32.871Z,70.58
2018-02-19T22:43:04.414Z,70.43
2018-02-19T22:45:32.756Z,71.10
2018-02-19T22:48:04.747Z,71.40
2018-02-19T22:50:33.041Z,71.67
2018-02-19T22:53:04.696Z,71.85
2018-02-19T22:55:33.285Z,72.37
2018-02-19T22:58:05.261Z,72.10
2018-02-19T23:00:33.572Z,72.11
2018-02-19T23:03:05.610Z,72.60
2018-02-19T23:05:33.945Z,73.02
2018-02-19T23:08:05.412Z,73.06
2018-02-19T23:10:33.690Z,73.08
2018-02-19T23:13:05.747Z,73.30
2018-02-19T23:15:34.189Z,73.33
2018-02-19T23:18:04.232Z,73.25
2018-02-19T23:20:32.529Z,73.11
2018-02-19T23:23:03.753Z,73.24
2018-02-19T23:25:34.566Z,72.86
2018-02-19T23:28:05.671Z,72.79
2018-02-19T23:30:38.808Z,71.88
2018-02-19T23:33:08.945Z,72.90
2018-02-19T23:35:38.506Z,73.46
2018-02-19T23:38:11.597Z,73.23
2018-02-19T23:40:40.947Z,74.00
2018-02-19T23:43:10.029Z,74.50
2018-02-19T23:45:39.943Z,75.15
2018-02-19T23:48:10.943Z,75.47
2018-02-19T23:50:40.752Z,76.15
2018-02-19T23:53:09.517Z,76.00
2018-02-19T23:55:38.651Z,75.77
2018-02-19T23:58:08.849Z,75.57
